Plessisville, Canada
Current Conditions -  °F | °C
As of 11:49 PM on Saturday 22 Nov 2014 (Local Time) from CYQB Reporting Station
Drizzle Drizzle  
Wind Chill: -6°   Ceiling: 600
Heat Index:   Visibility: 5mi
Dew Point: -1°   Wind: 15mph
Humidity: 93%   Direction: 230°SW
Pressure: 29.83"   Gusts: NA
Location:  46.22°N, 71.77°W
Report Text: CYQB 230449Z 23013KT 5SM -DZ OVC006 00/M01 A2983 RMK ST8 SLP107
Loading
Personal Weather Stations






























Interactive Weather Map New forecast layout! Learn more

10-Day Weather Forecast

Advertisements
Track Severe Weather on mobile